Time;durP1;ratioP1;P1;durP2;ratioP2;P2;SDS_P1;SDS_P2;PMS_P1;PMS_P2;Temp;Humidity;BMP_temperature;BMP_pressure;BME280_temperature;BME280_humidity;BME280_pressure;Samples;Min_cycle;Max_cycle;Signal;HPM_P1;HPM_P2
2022/01/10 04:32:12;;;;;;;10.83;7.77;;;;;;;8.32;58.82;98462.56;7386301;23;20317;-84
2022/01/10 04:35:34;;;;;;;13.23;8.00;;;;;;;8.17;58.73;98464.53;6799041;29;20213;-83
2022/01/10 04:38:56;;;;;;;9.23;7.70;;;;;;;7.99;59.37;98452.66;6792464;29;20209;-83
2022/01/10 04:42:19;;;;;;;9.37;8.03;;;;;;;8.01;59.41;98493.56;6792716;29;20316;-83
2022/01/10 04:45:42;;;;;;;11.73;8.33;;;;;;;8.07;59.55;98484.72;6790925;29;20301;-84
2022/01/10 04:49:09;;;;;;;12.30;8.30;;;;;;;8.17;59.70;98504.81;6794773;29;20219;-81
2022/01/10 04:52:31;;;;;;;10.53;7.80;;;;;;;7.84;59.77;98433.97;6794719;29;20225;-82
2022/01/10 04:55:53;;;;;;;15.73;8.70;;;;;;;7.87;59.82;98518.63;6793848;29;20220;-84
2022/01/10 04:59:15;;;;;;;13.33;8.97;;;;;;;8.09;60.07;98512.19;6792142;29;20201;-84
2022/01/10 05:02:36;;;;;;;11.23;8.43;;;;;;;7.63;59.94;98417.94;6789343;29;20228;-83
2022/01/10 05:05:59;;;;;;;10.20;8.73;;;;;;;7.88;59.80;98454.03;6788558;29;20232;-84
2022/01/10 05:09:21;;;;;;;12.43;9.10;;;;;;;7.77;59.23;98459.94;6791115;29;20214;-83
2022/01/10 05:12:43;;;;;;;13.67;9.23;;;;;;;8.07;60.18;98551.84;6798378;29;20232;-83
2022/01/10 05:16:05;;;;;;;11.40;8.23;;;;;;;8.06;60.44;98558.22;6791398;29;20234;-84
2022/01/10 05:19:26;;;;;;;22.10;14.87;;;;;;;7.97;60.25;98528.03;6788685;29;20211;-81
2022/01/10 05:22:49;;;;;;;17.67;11.87;;;;;;;8.30;59.90;98549.75;6791260;29;20243;-81
2022/01/10 05:26:11;;;;;;;14.43;8.90;;;;;;;8.37;59.43;98553.31;6791508;29;20329;-82
2022/01/10 05:29:33;;;;;;;12.20;8.67;;;;;;;8.46;59.32;98576.28;6791894;29;20227;-83
2022/01/10 05:32:55;;;;;;;12.03;8.97;;;;;;;8.47;58.94;98573.41;6791445;29;20267;-84
2022/01/10 05:36:20;;;;;;;11.53;8.67;;;;;;;8.30;59.51;98550.56;6792139;29;20332;-81
2022/01/10 05:39:51;;;;;;;12.57;8.70;;;;;;;7.92;60.34;98589.50;6793329;29;20218;-84
2022/01/10 05:43:12;;;;;;;12.97;9.50;;;;;;;7.94;60.88;98608.09;6794855;29;20246;-80
2022/01/10 05:46:35;;;;;;;14.93;9.50;;;;;;;8.23;60.35;98605.25;6794324;29;20228;-81
2022/01/10 05:50:02;;;;;;;15.63;13.23;;;;;;;8.11;60.40;98596.03;6794601;29;20666;-82
2022/01/10 05:53:24;;;;;;;10.63;8.97;;;;;;;8.33;59.84;98613.81;6793761;29;20228;-80
2022/01/10 05:56:47;;;;;;;13.07;8.47;;;;;;;8.18;59.92;98611.19;6792376;29;20216;-82
2022/01/10 06:00:09;;;;;;;11.33;8.87;;;;;;;8.44;59.93;98627.53;6797685;29;20203;-86
2022/01/10 06:03:31;;;;;;;10.77;7.93;;;;;;;8.30;59.23;98638.41;6795031;29;20237;-86
2022/01/10 06:06:53;;;;;;;11.20;8.60;;;;;;;7.81;60.55;98610.66;6794354;29;20237;-84
2022/01/10 06:10:14;;;;;;;16.47;9.10;;;;;;;7.88;60.72;98641.91;6791037;29;20216;-82
2022/01/10 06:13:37;;;;;;;11.33;8.53;;;;;;;8.03;60.04;98590.81;6785489;29;20207;-86
2022/01/10 06:16:59;;;;;;;15.73;9.60;;;;;;;7.69;60.46;98636.34;6784996;29;20357;-85
2022/01/10 06:20:21;;;;;;;15.37;11.63;;;;;;;7.67;61.12;98630.34;6785179;29;20211;-83
2022/01/10 06:23:42;;;;;;;16.87;10.53;;;;;;;7.92;61.27;98628.94;6784650;29;20213;-83
2022/01/10 06:27:04;;;;;;;15.23;11.40;;;;;;;7.79;60.58;98612.72;6785489;29;20254;-83
2022/01/10 06:30:29;;;;;;;17.80;11.77;;;;;;;7.89;61.47;98661.53;6790223;29;20224;-81
2022/01/10 06:33:51;;;;;;;16.23;11.03;;;;;;;8.18;61.23;98694.44;6792341;29;20204;-82
2022/01/10 06:37:12;;;;;;;18.33;11.23;;;;;;;8.02;60.95;98701.94;6792792;29;20216;-82
2022/01/10 06:40:34;;;;;;;12.43;9.93;;;;;;;7.99;61.24;98699.59;6792442;29;20239;-84
2022/01/10 06:43:56;;;;;;;17.20;11.33;;;;;;;8.07;60.90;98715.63;6792950;29;20220;-86
2022/01/10 06:47:19;;;;;;;22.43;11.57;;;;;;;7.90;61.52;98706.13;6791375;29;20279;-82
2022/01/10 06:50:42;;;;;;;15.00;10.57;;;;;;;7.97;61.33;98736.56;6789835;29;20229;-80
2022/01/10 06:54:03;;;;;;;15.20;11.37;;;;;;;7.66;62.17;98696.56;6791275;29;20215;-80
2022/01/10 06:57:25;;;;;;;17.07;10.93;;;;;;;8.02;61.00;98677.75;6782609;29;20737;-79
2022/01/10 07:00:48;;;;;;;16.30;10.90;;;;;;;8.33;60.82;98734.69;6780587;29;20279;-80
2022/01/10 07:04:11;;;;;;;17.27;11.17;;;;;;;8.17;62.23;98754.53;6788454;29;20312;-78
2022/01/10 07:07:33;;;;;;;13.37;10.87;;;;;;;8.18;61.63;98753.50;6786828;29;20745;-79
2022/01/10 07:10:55;;;;;;;16.47;10.60;;;;;;;8.09;60.72;98714.41;6785963;29;20351;-79
2022/01/10 07:14:17;;;;;;;16.63;11.67;;;;;;;8.23;61.40;98775.28;6788097;29;20210;-81
2022/01/10 07:17:39;;;;;;;22.63;14.23;;;;;;;8.03;61.36;98717.00;6789914;29;20212;-81
2022/01/10 07:21:02;;;;;;;18.33;13.40;;;;;;;8.22;60.93;98783.53;6788542;29;20234;-82
2022/01/10 07:24:24;;;;;;;20.07;13.50;;;;;;;7.94;61.52;98736.94;6785914;29;20203;-81
2022/01/10 07:27:46;;;;;;;20.27;13.87;;;;;;;8.48;60.97;98810.69;6790208;29;20239;-80
2022/01/10 07:31:07;;;;;;;22.37;15.00;;;;;;;8.46;60.39;98815.41;6791127;29;20242;-82
2022/01/10 07:34:29;;;;;;;23.13;14.60;;;;;;;8.45;60.45;98821.78;6787340;29;20689;-82
2022/01/10 07:37:52;;;;;;;23.67;14.93;;;;;;;8.41;60.29;98826.72;6789297;29;20212;-82
2022/01/10 07:41:14;;;;;;;23.63;13.30;;;;;;;8.48;59.94;98830.31;6790597;29;20246;-82
2022/01/10 07:44:36;;;;;;;21.97;13.57;;;;;;;8.62;59.28;98852.78;6807288;29;20204;-81
2022/01/10 07:48:02;;;;;;;20.63;14.00;;;;;;;8.44;59.67;98837.06;6805634;29;20644;-82
2022/01/10 07:51:26;;;;;;;23.50;13.30;;;;;;;7.93;61.13;98869.47;6813092;29;20225;-82
2022/01/10 07:54:50;;;;;;;26.17;13.13;;;;;;;8.11;60.39;98854.66;6806346;29;20213;-83
2022/01/10 07:58:12;;;;;;;19.87;14.17;;;;;;;8.08;60.67;98856.88;6802208;29;20213;-87
2022/01/10 08:01:34;;;;;;;26.20;14.03;;;;;;;8.26;59.85;98841.22;6803889;29;20230;-83
2022/01/10 08:04:59;;;;;;;21.27;15.07;;;;;;;8.28;59.60;98837.34;6809919;29;20217;-86
2022/01/10 08:08:21;;;;;;;22.07;14.53;;;;;;;8.58;59.56;98889.94;6815891;29;20231;-87
2022/01/10 08:11:44;;;;;;;26.00;15.30;;;;;;;8.30;59.77;98890.88;6824917;29;20266;-84
2022/01/10 08:15:07;;;;;;;22.57;16.33;;;;;;;8.01;60.22;98843.38;6819323;29;20216;-86
2022/01/10 08:18:30;;;;;;;26.63;16.77;;;;;;;8.33;59.52;98899.38;6803178;29;20209;-84
2022/01/10 08:21:54;;;;;;;24.80;16.50;;;;;;;8.27;59.18;98857.16;6798636;29;20285;-85
2022/01/10 08:25:19;;;;;;;22.73;15.47;;;;;;;7.90;59.08;98834.97;6810919;29;20215;-86
2022/01/10 08:28:42;;;;;;;21.17;15.93;;;;;;;8.22;59.73;98881.06;6816425;29;20272;-87
2022/01/10 08:32:05;;;;;;;22.07;14.70;;;;;;;8.09;59.34;98880.03;6812003;29;20233;-86
2022/01/10 08:35:26;;;;;;;22.63;15.17;;;;;;;8.52;59.00;98940.91;6813655;29;20210;-88
2022/01/10 08:38:48;;;;;;;26.37;16.70;;;;;;;8.72;59.22;98940.13;6810348;29;20203;-85
2022/01/10 08:42:09;;;;;;;29.10;16.43;;;;;;;8.88;58.41;98947.09;6810748;29;20231;-87
2022/01/10 08:45:33;;;;;;;23.57;15.77;;;;;;;8.72;58.05;98950.88;6809200;29;20213;-87
2022/01/10 08:48:55;;;;;;;24.17;15.37;;;;;;;7.88;59.09;98869.22;6804808;29;20233;-83
2022/01/10 08:52:17;;;;;;;25.03;16.87;;;;;;;8.25;58.89;98886.03;6797804;29;20234;-84
2022/01/10 08:55:39;;;;;;;26.30;16.03;;;;;;;8.45;58.54;98946.22;6796436;29;20219;-84
2022/01/10 08:59:01;;;;;;;26.17;16.37;;;;;;;8.57;58.63;98958.16;6796841;29;20222;-85
2022/01/10 09:02:24;;;;;;;28.73;17.90;;;;;;;9.01;58.09;98963.41;6791972;29;20238;-86
2022/01/10 09:05:45;;;;;;;28.70;18.23;;;;;;;8.78;58.20;98984.25;6793658;29;20289;-86
2022/01/10 09:09:07;;;;;;;28.83;15.80;;;;;;;8.49;58.74;98974.38;6801365;29;20236;-85
2022/01/10 09:12:28;;;;;;;23.93;16.17;;;;;;;8.40;58.80;98939.75;6795591;29;20234;-84
2022/01/10 09:15:50;;;;;;;21.13;15.40;;;;;;;8.72;58.01;98972.38;6797969;29;20213;-86
2022/01/10 09:19:13;;;;;;;24.67;16.03;;;;;;;8.56;57.94;98977.16;6801054;29;20205;-85
2022/01/10 09:22:35;;;;;;;28.63;15.67;;;;;;;8.44;58.91;99000.16;6806543;29;20244;-86
2022/01/10 09:25:56;;;;;;;28.13;16.57;;;;;;;8.52;57.77;98986.59;6815430;29;20216;-85
2022/01/10 09:29:18;;;;;;;23.93;16.70;;;;;;;8.54;57.79;98987.25;6809307;29;20233;-86
2022/01/10 09:32:40;;;;;;;26.17;16.83;;;;;;;8.74;58.25;99032.19;6821193;29;20234;-85
2022/01/10 09:36:05;;;;;;;23.70;15.87;;;;;;;8.21;57.90;98940.31;6825288;29;20208;-87
2022/01/10 09:39:27;;;;;;;21.73;15.87;;;;;;;8.11;58.42;98964.75;6828203;29;20657;-86
2022/01/10 09:42:49;;;;;;;20.73;14.60;;;;;;;8.54;58.59;99055.25;6821713;29;20221;-86
2022/01/10 09:46:14;;;;;;;23.50;15.60;;;;;;;8.53;58.55;99001.69;6797828;29;20218;-82
2022/01/10 09:49:35;;;;;;;22.67;14.97;;;;;;;8.85;58.26;99042.41;6798617;29;20226;-83
2022/01/10 09:53:09;;;;;;;20.60;15.30;;;;;;;8.99;57.53;99052.31;6801417;29;20227;-85
2022/01/10 09:56:31;;;;;;;24.70;14.13;;;;;;;8.74;57.46;98989.16;6804142;29;20229;-84
2022/01/10 09:59:53;;;;;;;21.00;13.60;;;;;;;8.66;58.12;99010.75;6807286;29;20686;-85
2022/01/10 10:03:15;;;;;;;18.23;13.00;;;;;;;8.79;57.78;99072.75;6822450;29;20235;-84
2022/01/10 10:06:36;;;;;;;20.53;13.47;;;;;;;8.68;57.60;99062.50;6819241;29;20214;-84
2022/01/10 10:13:51;;;;;;;24.17;14.60;;;;;;;8.89;58.00;99069.78;6896715;23;20261;-84
2022/01/10 10:17:17;;;;;;;20.73;14.20;;;;;;;8.65;57.71;99027.06;6769428;29;20212;-85
2022/01/10 10:20:42;;;;;;;21.07;13.13;;;;;;;9.15;57.06;99095.97;6774536;29;20387;-88
2022/01/10 10:24:05;;;;;;;32.23;20.17;;;;;;;8.77;57.62;99074.78;6775370;29;20204;-83
2022/01/10 10:27:26;;;;;;;24.47;14.40;;;;;;;9.11;57.42;99097.34;6773202;29;20570;-88
2022/01/10 10:30:51;;;;;;;23.67;15.20;;;;;;;9.26;57.48;99084.72;6774650;29;20230;-91
2022/01/10 10:34:17;;;;;;;77.53;56.00;;;;;;;9.72;57.69;99095.94;6773018;29;20687;-87
2022/01/10 10:37:48;;;;;;;24.03;14.80;;;;;;;9.82;55.27;99042.63;6775998;29;20294;-89
2022/01/10 10:41:13;;;;;;;17.27;12.50;;;;;;;9.95;54.70;99091.19;6779848;29;20366;-88
2022/01/10 10:44:35;;;;;;;16.23;12.10;;;;;;;9.74;55.04;99102.81;6777818;29;20208;-89
2022/01/10 10:48:04;;;;;;;25.00;14.00;;;;;;;9.70;55.51;99109.59;6778019;29;20703;-89
2022/01/10 10:51:28;;;;;;;20.60;13.27;;;;;;;9.81;54.82;99119.84;6778039;29;20234;-89
2022/01/10 10:54:50;;;;;;;17.20;11.37;;;;;;;9.80;55.04;99114.69;6767080;29;20207;-87
2022/01/10 10:58:13;;;;;;;16.00;11.27;;;;;;;9.36;53.50;99055.66;6770469;29;20208;-86
2022/01/10 11:01:36;;;;;;;22.73;12.07;;;;;;;9.64;54.92;99079.94;6776400;29;20235;-85
2022/01/10 11:05:03;;;;;;;16.53;9.90;;;;;;;10.53;53.02;99110.56;6775819;29;20215;-84
2022/01/10 11:08:27;;;;;;;15.67;10.27;;;;;;;10.70;52.21;99105.69;6768103;29;20219;-87
2022/01/10 11:11:49;;;;;;;14.87;9.87;;;;;;;10.65;51.90;99118.91;6772306;29;20382;-87
2022/01/10 11:15:11;;;;;;;22.73;10.97;;;;;;;10.43;52.12;99074.19;6773889;29;20303;-86
2022/01/10 11:18:34;;;;;;;13.97;10.00;;;;;;;10.98;51.19;99106.47;6754613;29;20240;-86
2022/01/10 11:22:05;;;;;;;16.63;9.27;;;;;;;11.23;50.08;99127.31;6755104;29;20237;-86
2022/01/10 11:25:29;;;;;;;13.13;8.50;;;;;;;10.82;51.51;99145.41;6748824;29;20215;-86
2022/01/10 11:28:52;;;;;;;13.80;9.50;;;;;;;11.05;50.50;99145.91;6746953;29;20236;-86
2022/01/10 11:32:14;;;;;;;15.83;8.73;;;;;;;11.23;49.56;99157.00;6750612;29;20236;-88
2022/01/10 11:35:37;;;;;;;16.43;10.07;;;;;;;10.78;51.11;99141.41;6759510;29;20219;-85
2022/01/10 11:39:02;;;;;;;16.20;11.13;;;;;;;10.55;51.75;99094.16;6769889;29;20359;-85
2022/01/10 11:42:24;;;;;;;14.70;10.07;;;;;;;10.75;51.47;99152.59;6765603;29;20231;-84
2022/01/10 11:45:45;;;;;;;17.57;10.37;;;;;;;10.72;52.06;99158.38;6765952;29;20231;-84
2022/01/10 11:49:17;;;;;;;13.20;8.50;;;;;;;10.95;51.04;99148.16;6756088;29;20224;-85
2022/01/10 11:52:39;;;;;;;13.90;8.90;;;;;;;11.22;50.50;99162.63;6736044;29;20244;-85
2022/01/10 11:56:02;;;;;;;12.73;8.57;;;;;;;10.96;50.00;99141.72;6757431;29;20219;-85
2022/01/10 11:59:25;;;;;;;14.63;9.83;;;;;;;10.82;50.79;99142.69;6744453;29;20215;-85
2022/01/10 12:02:48;;;;;;;12.17;8.83;;;;;;;11.30;50.20;99166.00;6764083;29;20224;-85
2022/01/10 12:06:10;;;;;;;15.70;8.17;;;;;;;11.06;49.33;99171.03;6766101;29;20657;-87
2022/01/10 12:09:31;;;;;;;14.47;9.20;;;;;;;11.17;50.00;99175.88;6770252;29;20239;-84
2022/01/10 12:13:02;;;;;;;14.03;8.17;;;;;;;11.00;49.21;99158.34;6766143;29;20236;-88
2022/01/10 12:16:24;;;;;;;16.97;7.70;;;;;;;10.56;50.31;99157.88;6766937;29;20301;-89
2022/01/10 12:19:47;;;;;;;12.63;7.83;;;;;;;10.71;50.64;99201.72;6769923;29;20208;-85
2022/01/10 12:23:08;;;;;;;10.30;6.93;;;;;;;10.34;50.74;99157.06;6767044;29;20227;-87
2022/01/10 12:26:38;;;;;;;15.40;7.53;;;;;;;10.41;51.80;99206.47;6764932;29;20215;-88
2022/01/10 12:30:04;;;;;;;13.57;7.63;;;;;;;10.48;50.99;99166.09;6766916;29;20231;-84
2022/01/10 12:33:26;;;;;;;12.70;7.30;;;;;;;10.65;50.47;99206.06;6774402;29;20241;-91
2022/01/10 12:36:47;;;;;;;7.83;6.87;;;;;;;10.37;51.18;99198.94;6773533;29;20347;-89
2022/01/10 12:40:10;;;;;;;10.77;6.90;;;;;;;10.44;50.85;99183.66;6767918;29;20211;-90
2022/01/10 12:43:32;;;;;;;11.53;8.80;;;;;;;10.57;50.55;99190.00;6761521;29;20327;-89
2022/01/10 12:46:55;;;;;;;9.47;7.00;;;;;;;10.89;50.69;99250.63;6765781;29;20207;-89
2022/01/10 12:50:18;;;;;;;12.80;8.23;;;;;;;11.01;50.17;99254.44;6772587;29;20245;-88
2022/01/10 12:53:39;;;;;;;11.43;7.67;;;;;;;10.49;50.41;99254.00;6774650;29;20675;-91
2022/01/10 12:57:02;;;;;;;13.17;7.57;;;;;;;10.12;51.53;99195.00;6746336;29;20212;-89
2022/01/10 13:13:49;;;;;;;16.37;8.37;;;;;;;10.56;50.87;99230.66;6591526;30;20803;-88
2022/01/10 13:21:30;;;;;;;11.60;8.53;;;;;;;11.00;50.59;99298.66;6598753;30;20224;-88
2022/01/10 13:24:54;;;;;;;15.07;9.17;;;;;;;10.89;50.02;99272.19;6592633;30;20268;-88
2022/01/10 13:28:24;;;;;;;12.20;9.30;;;;;;;10.10;50.82;99141.31;6589562;30;20262;-89
2022/01/10 13:36:28;;;;;;;13.10;8.47;;;;;;;10.34;49.51;99184.00;6579757;30;20209;-89
2022/01/10 13:40:01;;;;;;;13.90;8.37;;;;;;;11.20;49.62;99315.81;6590213;30;20223;-88
2022/01/10 13:43:38;;;;;;;17.13;8.80;;;;;;;10.49;49.39;99219.81;6594574;30;20788;-86
2022/01/10 13:54:48;;;;;;;12.87;8.20;;;;;;;10.94;50.37;99332.66;6762144;29;20696;-76
2022/01/10 13:58:26;;;;;;;14.53;9.03;;;;;;;10.58;49.64;99309.47;6757350;29;20552;-77
2022/01/10 14:01:56;;;;;;;14.13;9.80;;;;;;;9.52;51.44;99189.13;6740670;29;20201;-76
2022/01/10 14:05:23;;;;;;;15.30;10.20;;;;;;;10.03;51.70;99256.25;6745708;29;20245;-76
2022/01/10 14:08:47;;;;;;;19.27;10.70;;;;;;;10.67;52.27;99346.06;6766038;29;20652;-76
2022/01/10 14:12:10;;;;;;;21.10;10.07;;;;;;;10.94;51.49;99361.47;6756646;29;20222;-76
2022/01/10 14:15:34;;;;;;;13.83;9.67;;;;;;;10.37;50.32;99266.34;6745550;29;20528;-77
2022/01/10 14:18:56;;;;;;;16.77;9.57;;;;;;;10.47;50.20;99297.34;6745827;29;20212;-76
2022/01/10 14:22:17;;;;;;;15.50;10.23;;;;;;;10.74;51.13;99365.88;6745877;29;20228;-76
2022/01/10 14:25:39;;;;;;;16.40;10.23;;;;;;;10.87;50.78;99356.00;6768101;29;20215;-76
2022/01/10 14:29:01;;;;;;;16.50;10.40;;;;;;;10.81;50.72;99353.28;6771105;29;20591;-75
2022/01/10 14:32:25;;;;;;;16.43;9.83;;;;;;;10.03;49.89;99190.75;6771552;29;20215;-76
2022/01/10 14:35:46;;;;;;;19.73;11.20;;;;;;;10.71;51.26;99385.97;6770856;29;20226;-75
2022/01/10 14:39:08;;;;;;;23.53;11.17;;;;;;;10.20;51.46;99314.25;6771361;29;20312;-75
2022/01/10 14:42:30;;;;;;;23.80;11.67;;;;;;;10.59;51.87;99419.84;6770963;29;20224;-75
2022/01/10 14:45:52;;;;;;;25.70;14.37;;;;;;;10.52;52.74;99402.75;6770738;29;20208;-76
2022/01/10 14:49:15;;;;;;;18.27;13.07;;;;;;;10.17;53.35;99352.34;6770105;29;20236;-76
2022/01/10 14:52:37;;;;;;;22.90;13.13;;;;;;;10.02;53.51;99303.03;6756707;29;20216;-75
2022/01/10 14:55:58;;;;;;;25.03;17.83;;;;;;;10.12;53.29;99367.44;6749686;29;20240;-76
2022/01/10 14:59:20;;;;;;;29.33;17.43;;;;;;;10.26;53.51;99364.72;6763039;29;20215;-76
2022/01/10 15:02:42;;;;;;;23.67;14.63;;;;;;;10.46;53.83;99397.28;6751057;29;20209;-76
2022/01/10 15:06:10;;;;;;;20.47;12.43;;;;;;;9.79;53.40;99317.66;6753897;29;20212;-76
2022/01/10 15:09:31;;;;;;;27.60;13.23;;;;;;;9.87;53.89;99342.63;6763617;29;20220;-75
2022/01/10 15:12:55;;;;;;;22.07;12.50;;;;;;;10.38;53.44;99411.72;6757317;29;20213;-76
2022/01/10 15:16:17;;;;;;;21.47;12.80;;;;;;;10.25;53.70;99390.00;6761823;29;20202;-77
2022/01/10 15:19:40;;;;;;;20.93;13.20;;;;;;;9.97;54.22;99378.19;6760922;29;20214;-77
2022/01/10 15:23:07;;;;;;;20.87;12.97;;;;;;;10.28;54.53;99445.38;6759634;29;20214;-90
2022/01/10 15:26:29;;;;;;;22.17;13.97;;;;;;;9.27;54.33;99272.03;6773117;29;20622;-87
2022/01/10 15:29:52;;;;;;;23.27;12.80;;;;;;;9.66;54.34;99344.41;6767889;29;20224;-90
2022/01/10 15:33:14;;;;;;;16.30;11.67;;;;;;;9.85;55.01;99438.09;6780537;29;20224;-85
2022/01/10 15:36:36;;;;;;;18.73;11.50;;;;;;;9.96;54.52;99419.63;6771061;29;20223;-79
2022/01/10 15:40:00;;;;;;;15.93;12.07;;;;;;;9.99;54.41;99421.13;6762922;29;20196;-80
2022/01/10 15:43:21;;;;;;;21.57;12.20;;;;;;;9.93;55.39;99449.59;6743666;29;20218;-80
2022/01/10 15:46:43;;;;;;;20.73;12.43;;;;;;;9.92;55.06;99465.97;6743499;29;20212;-80
2022/01/10 15:50:08;;;;;;;18.93;12.57;;;;;;;8.93;54.83;99278.13;6741861;29;20598;-80
2022/01/10 15:53:32;;;;;;;22.63;13.10;;;;;;;9.94;55.23;99498.94;6743281;29;20224;-80
2022/01/10 15:56:55;;;;;;;24.73;12.90;;;;;;;9.72;54.55;99424.44;6742887;29;20228;-80
2022/01/10 16:00:19;;;;;;;21.40;13.27;;;;;;;10.02;55.02;99488.94;6743181;29;20212;-80
2022/01/10 16:03:40;;;;;;;21.03;13.50;;;;;;;9.42;55.67;99430.81;6743042;29;20299;-83
2022/01/10 16:07:02;;;;;;;20.67;13.83;;;;;;;9.09;55.50;99362.19;6741099;29;20718;-79
2022/01/10 16:10:25;;;;;;;19.87;13.23;;;;;;;9.96;55.26;99513.91;6755063;29;20260;-78
2022/01/10 16:13:51;;;;;;;21.80;15.13;;;;;;;9.58;55.69;99449.50;6751942;29;20246;-78
2022/01/10 16:17:13;;;;;;;28.50;18.10;;;;;;;9.49;55.38;99445.19;6752890;29;20224;-78
2022/01/10 16:20:34;;;;;;;33.47;18.17;;;;;;;9.13;55.28;99399.28;6755719;29;20668;-79
2022/01/10 16:23:56;;;;;;;33.67;17.50;;;;;;;10.03;55.63;99536.44;6767128;29;20546;-78
2022/01/10 16:27:18;;;;;;;27.73;17.53;;;;;;;9.58;55.75;99473.72;6766639;29;20219;-78
2022/01/10 16:30:41;;;;;;;30.03;17.23;;;;;;;8.98;56.22;99419.09;6765845;29;20239;-78
2022/01/10 16:34:03;;;;;;;30.73;17.87;;;;;;;9.66;55.94;99522.09;6766465;29;20217;-78
2022/01/10 16:37:25;;;;;;;28.57;18.73;;;;;;;9.68;55.43;99522.78;6765217;29;20219;-78
2022/01/10 16:40:47;;;;;;;26.83;16.40;;;;;;;9.59;56.52;99548.09;6765884;29;20215;-78
2022/01/10 16:44:09;;;;;;;30.53;19.57;;;;;;;9.70;56.28;99559.25;6766060;29;20324;-79
2022/01/10 16:47:32;;;;;;;41.17;23.73;;;;;;;8.66;56.27;99448.88;6764148;29;20211;-77
2022/01/10 16:50:54;;;;;;;42.97;26.80;;;;;;;8.72;56.77;99512.69;6743517;29;20235;-78
2022/01/10 16:54:16;;;;;;;35.73;22.80;;;;;;;9.31;57.00;99600.75;6740536;29;20230;-78
2022/01/10 16:57:37;;;;;;;30.80;19.40;;;;;;;8.22;56.58;99514.94;6740242;29;20555;-78
2022/01/10 17:01:04;;;;;;;38.13;22.97;;;;;;;7.17;57.54;99435.59;6741384;29;20699;-95
2022/01/10 17:04:28;;;;;;;33.30;17.90;;;;;;;7.73;56.38;99421.25;6741121;29;20218;-78
2022/01/10 17:07:49;;;;;;;33.17;19.73;;;;;;;8.62;56.67;99630.38;6739851;29;20275;-78
2022/01/10 17:11:11;;;;;;;37.20;20.93;;;;;;;8.42;56.71;99633.59;6739673;29;20247;-79
2022/01/10 17:14:33;;;;;;;33.07;20.53;;;;;;;7.84;57.60;99521.03;6742147;29;20210;-78
2022/01/10 17:17:55;;;;;;;25.03;15.60;;;;;;;7.85;57.37;99497.72;6748791;29;20219;-79
2022/01/10 17:21:18;;;;;;;31.20;15.10;;;;;;;8.75;57.84;99644.09;6754727;29;20214;-78
2022/01/10 17:24:40;;;;;;;25.37;17.50;;;;;;;8.53;57.56;99650.19;6750608;29;20212;-78
2022/01/10 17:28:02;;;;;;;28.43;16.47;;;;;;;7.96;58.62;99585.97;6738038;29;20220;-78
2022/01/10 17:31:30;;;;;;;23.00;15.37;;;;;;;8.16;57.87;99595.31;6741492;29;20234;-78
2022/01/10 17:34:53;;;;;;;20.43;13.97;;;;;;;8.83;57.66;99680.88;6740332;29;20571;-79
2022/01/10 17:38:20;;;;;;;28.40;15.57;;;;;;;8.07;57.75;99601.75;6741236;29;20214;-79
2022/01/10 17:41:43;;;;;;;31.67;18.40;;;;;;;8.56;58.63;99675.91;6765843;29;20206;-79
2022/01/10 17:45:07;;;;;;;30.50;17.77;;;;;;;7.72;58.94;99583.31;6766234;29;20203;-78
2022/01/10 17:48:29;;;;;;;30.67;17.70;;;;;;;7.25;59.55;99583.09;6767434;29;20224;-79
2022/01/10 17:51:59;;;;;;;35.30;23.73;;;;;;;7.70;58.81;99593.34;6766122;29;20228;-77
2022/01/10 17:55:23;;;;;;;52.40;32.90;;;;;;;7.77;60.29;99666.84;6765940;29;20199;-77
2022/01/10 17:58:44;;;;;;;39.17;23.17;;;;;;;8.10;61.33;99684.63;6765056;29;20602;-75
2022/01/10 18:02:07;;;;;;;29.73;16.87;;;;;;;7.78;58.08;99639.00;6760735;29;20219;-78
2022/01/10 18:05:29;;;;;;;29.37;18.20;;;;;;;8.40;57.79;99717.06;6740219;29;20259;-77
2022/01/10 18:08:51;;;;;;;34.10;19.10;;;;;;;8.36;58.11;99699.59;6740100;29;20238;-77
2022/01/10 18:12:14;;;;;;;28.63;18.90;;;;;;;8.39;56.79;99715.41;6740158;29;20234;-76
2022/01/10 18:15:36;;;;;;;40.03;24.73;;;;;;;7.70;57.77;99661.28;6739895;29;20207;-78
2022/01/10 18:18:58;;;;;;;45.77;30.47;;;;;;;7.44;58.19;99665.97;6739898;29;20213;-77
2022/01/10 18:22:21;;;;;;;34.37;20.43;;;;;;;7.80;56.53;99653.94;6739208;29;20234;-77
2022/01/10 18:25:43;;;;;;;29.07;18.43;;;;;;;6.88;58.70;99689.88;6740757;29;20584;-90
2022/01/10 18:29:14;;;;;;;29.13;17.77;;;;;;;7.12;58.98;99686.44;6740595;29;20244;-83
2022/01/10 18:37:02;;;;;;;24.00;14.37;;;;;;;6.89;58.70;99637.13;6747523;29;20210;-96
2022/01/10 18:40:25;;;;;;;24.20;14.13;;;;;;;6.47;58.29;99558.56;6745818;29;20257;-96
2022/01/10 18:48:06;;;;;;;26.57;16.80;;;;;;;7.08;58.54;99762.88;6742071;29;20221;-87
2022/01/10 18:51:28;;;;;;;25.03;15.03;;;;;;;6.79;59.24;99748.97;6740628;29;20235;-93
2022/01/10 18:54:50;;;;;;;24.53;16.07;;;;;;;6.63;59.43;99728.28;6739893;29;20221;-89
2022/01/10 18:58:12;;;;;;;27.87;18.97;;;;;;;6.86;59.79;99772.31;6739505;29;20214;-88
2022/01/10 19:01:35;;;;;;;32.47;19.07;;;;;;;6.50;60.58;99740.41;6745145;29;20214;-89
2022/01/10 19:04:59;;;;;;;26.53;16.70;;;;;;;5.93;59.92;99602.59;6744200;29;20207;-88
2022/01/10 19:08:21;;;;;;;27.57;15.50;;;;;;;5.65;58.93;99544.00;6745463;29;20272;-90
2022/01/10 19:11:43;;;;;;;24.97;17.27;;;;;;;6.70;59.86;99803.50;6744334;29;20312;-88
2022/01/10 19:15:07;;;;;;;27.10;16.37;;;;;;;6.82;59.79;99803.09;6746444;29;20222;-85
2022/01/10 19:18:29;;;;;;;23.47;14.47;;;;;;;5.99;59.20;99644.81;6743662;29;20565;-81
2022/01/10 19:21:52;;;;;;;32.27;18.67;;;;;;;5.90;60.80;99816.19;6742652;29;20219;-81
2022/01/10 19:25:13;;;;;;;44.63;22.90;;;;;;;5.54;61.42;99673.47;6742854;29;20275;-81
2022/01/10 19:28:38;;;;;;;34.53;21.47;;;;;;;6.04;61.27;99711.25;6742676;29;20213;-80
2022/01/10 19:32:00;;;;;;;39.77;21.53;;;;;;;6.30;60.54;99733.56;6742219;29;20584;-78
2022/01/10 19:35:23;;;;;;;31.00;20.17;;;;;;;7.04;60.31;99837.44;6751871;29;20213;-77
2022/01/10 19:38:46;;;;;;;33.07;18.77;;;;;;;6.79;60.05;99790.00;6752334;29;20211;-77
2022/01/10 19:42:07;;;;;;;27.10;17.30;;;;;;;7.17;59.29;99847.72;6753474;29;20206;-77
2022/01/10 19:45:30;;;;;;;28.37;16.77;;;;;;;6.20;59.65;99717.56;6751272;29;20205;-78
2022/01/10 19:48:51;;;;;;;31.57;16.40;;;;;;;6.43;59.61;99734.81;6750227;29;20207;-77
2022/01/10 19:52:13;;;;;;;28.70;16.97;;;;;;;6.71;58.98;99840.06;6753231;29;20218;-77
2022/01/10 19:55:36;;;;;;;32.27;19.77;;;;;;;6.36;59.86;99859.66;6753861;29;20207;-77
2022/01/10 19:58:58;;;;;;;35.77;21.90;;;;;;;6.34;60.45;99842.91;6764800;29;20204;-77
2022/01/10 20:02:20;;;;;;;35.50;19.50;;;;;;;4.82;61.23;99661.97;6767078;29;20237;-77
2022/01/10 20:05:42;;;;;;;30.03;19.77;;;;;;;5.62;61.87;99812.66;6766733;29;20225;-77
2022/01/10 20:09:04;;;;;;;35.03;20.73;;;;;;;6.11;61.89;99817.56;6766898;29;20327;-77
2022/01/10 20:12:27;;;;;;;30.40;20.70;;;;;;;5.20;60.82;99644.88;6766362;29;20221;-77
2022/01/10 20:15:50;;;;;;;35.17;19.87;;;;;;;5.50;60.78;99645.38;6766574;29;20826;-77
2022/01/10 20:19:12;;;;;;;28.80;19.20;;;;;;;6.29;60.00;99735.41;6766515;29;20220;-77
2022/01/10 20:22:37;;;;;;;41.43;21.50;;;;;;;6.87;59.88;99869.63;6765964;29;20211;-77
2022/01/10 20:25:58;;;;;;;39.03;24.57;;;;;;;6.69;59.65;99867.00;6765735;29;20222;-77
2022/01/10 20:29:23;;;;;;;37.70;23.33;;;;;;;6.31;60.04;99789.63;6747627;29;20721;-77
2022/01/10 20:32:47;;;;;;;34.53;21.43;;;;;;;7.13;59.38;99878.56;6740736;29;20235;-77
2022/01/10 20:36:09;;;;;;;32.33;19.50;;;;;;;6.49;59.37;99747.59;6740076;29;20215;-77
2022/01/10 20:39:30;;;;;;;26.43;17.70;;;;;;;7.32;58.45;99875.66;6740506;29;20231;-77
2022/01/10 20:42:52;;;;;;;28.67;17.37;;;;;;;7.24;58.29;99864.88;6740798;29;20225;-77
2022/01/10 20:46:16;;;;;;;32.17;18.80;;;;;;;6.85;58.66;99883.19;6740600;29;20224;-77
2022/01/10 20:49:37;;;;;;;31.57;18.70;;;;;;;6.95;58.74;99865.16;6740462;29;20256;-76
2022/01/10 20:52:59;;;;;;;26.97;17.80;;;;;;;7.18;58.17;99893.16;6765766;29;20228;-78
2022/01/10 20:56:23;;;;;;;28.40;15.63;;;;;;;7.14;58.36;99893.66;6766094;29;20703;-77